Time;durP1;ratioP1;P1;durP2;ratioP2;P2;SDS_P1;SDS_P2;PMS_P1;PMS_P2;Temp;Humidity;BMP_temperature;BMP_pressure;BME280_temperature;BME280_humidity;BME280_pressure;Samples;Min_cycle;Max_cycle;Signal;HPM_P1;HPM_P2
2023/12/22 05:30:45;;;;;;;0.10;0.10;;;12.10;87.60;;;;;;5755741;23;20048;-79
2023/12/22 05:33:11;;;;;;;0.10;0.10;;;12.10;87.70;;;;;;4907770;29;20036;-79
2023/12/22 05:35:37;;;;;;;0.10;0.10;;;12.00;87.70;;;;;;4903100;29;20426;-79
2023/12/22 05:38:02;;;;;;;0.10;0.10;;;12.00;87.70;;;;;;4910894;29;20107;-79
2023/12/22 05:40:28;;;;;;;0.10;0.10;;;12.00;87.80;;;;;;4905554;29;20020;-79
2023/12/22 05:42:54;;;;;;;0.10;0.10;;;12.10;87.80;;;;;;4919990;29;20539;-79
2023/12/22 05:45:19;;;;;;;0.10;0.10;;;12.00;87.80;;;;;;4906443;29;20510;-80
2023/12/22 05:47:45;;;;;;;0.10;0.10;;;12.10;87.80;;;;;;4900516;29;20489;-79
2023/12/22 05:50:12;;;;;;;0.10;0.10;;;12.00;87.80;;;;;;4900671;29;20032;-78
2023/12/22 05:52:37;;;;;;;0.10;0.10;;;12.00;87.80;;;;;;4883387;29;20029;-79
2023/12/22 05:55:03;;;;;;;0.10;0.10;;;12.00;87.80;;;;;;4883229;29;20031;-79
2023/12/22 05:57:29;;;;;;;0.10;0.10;;;12.10;87.90;;;;;;4883215;29;20033;-80
2023/12/22 05:59:55;;;;;;;0.10;0.10;;;12.00;87.80;;;;;;4899542;29;20028;-79
2023/12/22 06:02:21;;;;;;;0.10;0.10;;;12.10;87.80;;;;;;4882309;29;20063;-79
2023/12/22 06:04:46;;;;;;;0.10;0.10;;;12.10;87.70;;;;;;4883553;29;20040;-80
2023/12/22 06:07:12;;;;;;;0.10;0.10;;;12.10;87.60;;;;;;4900305;29;20036;-81
2023/12/22 06:09:37;;;;;;;0.10;0.10;;;12.10;87.70;;;;;;4899259;29;20044;-82
2023/12/22 06:12:03;;;;;;;0.10;0.10;;;12.10;87.50;;;;;;4900282;29;20081;-80
2023/12/22 06:14:29;;;;;;;0.10;0.10;;;12.10;87.60;;;;;;4899585;29;20043;-77
2023/12/22 06:16:57;;;;;;;0.10;0.10;;;12.20;87.50;;;;;;4883483;29;20032;-81
2023/12/22 06:19:24;;;;;;;0.10;0.10;;;12.20;87.50;;;;;;4898944;29;20563;-82
2023/12/22 06:21:50;;;;;;;0.10;0.10;;;12.10;87.30;;;;;;4900189;29;20697;-80
2023/12/22 06:24:16;;;;;;;0.10;0.10;;;12.20;87.40;;;;;;4899452;29;20112;-81
2023/12/22 06:26:42;;;;;;;0.10;0.10;;;12.10;87.50;;;;;;4883677;29;20036;-81
2023/12/22 06:29:07;;;;;;;0.10;0.10;;;12.10;87.60;;;;;;4881714;29;20053;-88
2023/12/22 06:31:33;;;;;;;0.10;0.10;;;12.20;87.60;;;;;;4890234;29;20519;-88
2023/12/22 06:34:02;;;;;;;0.10;0.10;;;12.10;87.70;;;;;;4896862;29;20712;-88
2023/12/22 06:36:29;;;;;;;0.10;0.10;;;12.20;87.70;;;;;;4900066;29;20100;-89
2023/12/22 06:38:55;;;;;;;0.10;0.10;;;12.20;87.70;;;;;;4909446;29;20024;-88
2023/12/22 06:41:29;;;;;;;0.10;0.10;;;12.10;87.70;;;;;;4912537;29;20376;-89
2023/12/22 06:43:56;;;;;;;0.10;0.10;;;12.00;87.70;;;;;;4917714;29;20424;-89
2023/12/22 06:46:23;;;;;;;0.10;0.10;;;12.00;87.80;;;;;;4917406;29;20554;-90
2023/12/22 06:48:49;;;;;;;0.10;0.10;;;12.00;87.80;;;;;;4901554;29;20036;-89
2023/12/22 06:51:31;;;;;;;0.00;0.00;;;11.90;87.90;;;;;;4897433;29;20472;-85
2023/12/22 06:53:59;;;;;;;0.10;0.10;;;11.90;87.90;;;;;;4899484;29;20543;-87
2023/12/22 06:56:29;;;;;;;0.10;0.10;;;11.80;87.90;;;;;;4897285;29;20109;-87
2023/12/22 06:58:57;;;;;;;0.10;0.10;;;11.90;87.80;;;;;;4898323;29;20031;-87
2023/12/22 07:01:29;;;;;;;0.10;0.10;;;11.80;87.80;;;;;;4877987;29;20697;-87
2023/12/22 07:03:54;;;;;;;0.10;0.10;;;11.80;87.80;;;;;;4898308;29;20059;-88
2023/12/22 07:06:27;;;;;;;0.10;0.10;;;11.80;87.80;;;;;;4896430;29;20033;-87
2023/12/22 07:09:12;;;;;;;0.10;0.10;;;11.80;87.70;;;;;;4886910;29;20036;-87
2023/12/22 07:11:41;;;;;;;0.10;0.10;;;11.80;87.70;;;;;;4886107;29;20024;-88
2023/12/22 07:14:07;;;;;;;0.20;0.20;;;11.90;87.70;;;;;;4898696;29;20021;-87
2023/12/22 07:16:33;;;;;;;0.10;0.10;;;11.80;87.70;;;;;;4899316;29;20028;-87
2023/12/22 07:18:59;;;;;;;0.10;0.10;;;11.80;87.70;;;;;;4897104;29;20128;-87
2023/12/22 07:21:25;;;;;;;0.10;0.10;;;11.80;87.80;;;;;;4898750;29;20020;-87
2023/12/22 07:23:50;;;;;;;0.10;0.10;;;11.80;87.60;;;;;;4898646;29;20113;-87
2023/12/22 07:26:16;;;;;;;0.10;0.10;;;11.80;87.70;;;;;;4898869;29;20040;-87
2023/12/22 07:28:41;;;;;;;0.10;0.10;;;11.80;87.80;;;;;;4897888;29;20028;-88
2023/12/22 07:31:07;;;;;;;0.10;0.10;;;11.90;87.60;;;;;;4897901;29;20044;-87
2023/12/22 07:33:33;;;;;;;0.10;0.10;;;11.80;87.60;;;;;;4898392;29;20021;-87
2023/12/22 07:35:58;;;;;;;0.10;0.10;;;11.90;87.60;;;;;;4897241;29;20843;-86
2023/12/22 07:38:24;;;;;;;0.10;0.10;;;11.90;87.60;;;;;;4896438;29;20023;-86
2023/12/22 07:40:50;;;;;;;0.10;0.10;;;11.90;87.60;;;;;;4897548;29;20108;-87
2023/12/22 07:43:16;;;;;;;0.10;0.10;;;11.90;87.60;;;;;;4898265;29;20088;-86
2023/12/22 07:45:41;;;;;;;0.10;0.10;;;11.80;87.40;;;;;;4896219;29;20028;-87
2023/12/22 07:48:07;;;;;;;0.10;0.10;;;11.90;87.50;;;;;;4897593;29;20578;-87
2023/12/22 07:50:33;;;;;;;0.10;0.10;;;11.90;87.60;;;;;;4896292;29;20032;-87
2023/12/22 07:52:59;;;;;;;0.10;0.10;;;11.90;87.50;;;;;;4898156;29;20012;-86
2023/12/22 07:55:25;;;;;;;0.10;0.10;;;11.90;87.30;;;;;;4889536;29;20025;-87
2023/12/22 07:57:50;;;;;;;0.10;0.10;;;11.90;87.40;;;;;;4905111;29;20029;-87
2023/12/22 08:00:17;;;;;;;0.10;0.10;;;11.80;87.40;;;;;;4896480;29;20436;-87
2023/12/22 08:02:43;;;;;;;0.10;0.10;;;11.80;87.40;;;;;;4896584;29;20040;-85
2023/12/22 08:05:08;;;;;;;0.10;0.10;;;11.80;87.60;;;;;;4898734;29;20045;-84
2023/12/22 08:07:34;;;;;;;0.10;0.10;;;11.90;87.40;;;;;;4896695;29;20040;-84
2023/12/22 08:10:01;;;;;;;0.10;0.10;;;11.90;87.40;;;;;;4896766;29;20032;-84
2023/12/22 08:12:27;;;;;;;0.10;0.10;;;11.90;87.40;;;;;;4889755;29;20089;-84
2023/12/22 08:14:53;;;;;;;0.10;0.10;;;11.80;87.20;;;;;;4886632;29;20107;-84
2023/12/22 08:17:19;;;;;;;0.10;0.10;;;11.80;87.50;;;;;;4895160;29;20867;-84
2023/12/22 08:19:45;;;;;;;0.10;0.10;;;11.80;87.20;;;;;;4898025;29;20035;-84
2023/12/22 08:22:12;;;;;;;0.10;0.10;;;11.80;87.30;;;;;;4895783;29;20032;-84
2023/12/22 08:24:39;;;;;;;0.10;0.10;;;11.80;87.10;;;;;;4897645;29;20101;-83
2023/12/22 08:27:06;;;;;;;0.10;0.10;;;11.80;87.00;;;;;;4897771;29;20060;-83
2023/12/22 08:29:32;;;;;;;0.10;0.10;;;11.80;86.60;;;;;;4893644;29;20063;-84
2023/12/22 08:31:57;;;;;;;0.10;0.10;;;11.80;86.90;;;;;;4895651;29;20079;-83
2023/12/22 08:34:23;;;;;;;0.10;0.10;;;11.80;86.80;;;;;;4895966;29;20036;-88
2023/12/22 08:36:49;;;;;;;0.10;0.10;;;11.80;86.60;;;;;;4897344;29;20085;-85
2023/12/22 08:39:15;;;;;;;0.10;0.10;;;11.80;86.50;;;;;;4872827;29;20423;-84
2023/12/22 08:41:41;;;;;;;0.13;0.13;;;11.90;86.50;;;;;;4883982;29;20116;-84
2023/12/22 08:44:07;;;;;;;0.10;0.10;;;11.80;85.70;;;;;;4899405;29;20047;-84
2023/12/22 08:46:33;;;;;;;0.10;0.10;;;11.80;86.10;;;;;;4898683;29;20115;-84
2023/12/22 08:48:59;;;;;;;0.10;0.10;;;11.80;85.90;;;;;;4883271;29;20052;-83
2023/12/22 08:51:29;;;;;;;0.10;0.10;;;11.90;85.90;;;;;;4896287;29;20059;-86
2023/12/22 08:53:55;;;;;;;0.10;0.10;;;11.90;85.60;;;;;;4876111;29;20032;-84
2023/12/22 08:56:24;;;;;;;0.10;0.10;;;11.90;85.50;;;;;;4878931;29;20541;-84
2023/12/22 08:58:54;;;;;;;0.10;0.10;;;11.90;85.60;;;;;;4884058;29;20044;-84
2023/12/22 09:01:21;;;;;;;0.10;0.10;;;12.00;85.20;;;;;;4883370;29;20033;-84
2023/12/22 09:03:48;;;;;;;0.10;0.10;;;11.90;85.20;;;;;;4883492;29;20031;-84
2023/12/22 09:06:18;;;;;;;0.10;0.10;;;12.00;85.10;;;;;;4882663;29;20096;-84
2023/12/22 09:08:44;;;;;;;0.10;0.10;;;12.10;85.00;;;;;;4880030;29;20028;-84
2023/12/22 09:11:15;;;;;;;0.10;0.10;;;12.10;84.90;;;;;;4898804;29;20567;-85
2023/12/22 09:13:41;;;;;;;0.10;0.10;;;12.10;84.30;;;;;;4882188;29;20119;-84
2023/12/22 09:16:07;;;;;;;0.10;0.10;;;12.00;84.20;;;;;;4882632;29;20057;-84
2023/12/22 09:18:34;;;;;;;0.17;0.17;;;12.10;84.30;;;;;;4898873;29;20108;-84
2023/12/22 09:20:59;;;;;;;0.10;0.10;;;12.10;83.90;;;;;;4883997;29;20090;-84
2023/12/22 09:23:25;;;;;;;0.10;0.10;;;12.10;83.90;;;;;;4900970;29;20488;-85
2023/12/22 09:25:51;;;;;;;0.10;0.10;;;12.20;83.70;;;;;;4900252;29;20029;-85
2023/12/22 09:28:16;;;;;;;0.13;0.13;;;12.20;83.80;;;;;;4899655;29;20032;-85
2023/12/22 09:30:42;;;;;;;0.10;0.10;;;12.30;83.40;;;;;;4885129;29;20059;-85
2023/12/22 09:33:09;;;;;;;0.20;0.20;;;12.30;83.40;;;;;;4899374;29;20550;-85
2023/12/22 09:35:35;;;;;;;0.10;0.10;;;12.30;83.40;;;;;;4895922;29;20120;-86
2023/12/22 09:38:01;;;;;;;0.10;0.10;;;12.30;83.20;;;;;;4880881;29;20029;-83
2023/12/22 09:40:27;;;;;;;0.13;0.13;;;12.30;83.10;;;;;;4893619;29;20160;-83
2023/12/22 09:42:57;;;;;;;0.17;0.17;;;12.40;82.70;;;;;;4915868;29;20033;-84
2023/12/22 09:45:23;;;;;;;0.10;0.10;;;12.40;82.20;;;;;;4915170;29;20076;-83
2023/12/22 09:47:51;;;;;;;0.17;0.17;;;12.40;82.30;;;;;;4914559;29;20037;-83
2023/12/22 09:50:17;;;;;;;0.10;0.10;;;12.50;82.10;;;;;;4900604;29;20034;-83
2023/12/22 09:52:44;;;;;;;0.10;0.10;;;12.50;82.00;;;;;;4895289;29;20053;-82
2023/12/22 09:55:11;;;;;;;0.10;0.10;;;12.50;81.30;;;;;;4881817;29;20021;-83
2023/12/22 09:57:39;;;;;;;0.10;0.10;;;12.50;80.70;;;;;;4895930;29;20120;-83
2023/12/22 10:00:08;;;;;;;0.10;0.10;;;12.60;80.70;;;;;;4899280;29;20041;-83
2023/12/22 10:02:35;;;;;;;0.10;0.10;;;12.50;80.80;;;;;;4899937;29;20032;-83
2023/12/22 10:05:01;;;;;;;0.10;0.10;;;12.50;80.70;;;;;;4898134;29;20124;-83
2023/12/22 10:07:28;;;;;;;0.10;0.10;;;12.50;80.40;;;;;;4899415;29;20028;-83
2023/12/22 10:09:56;;;;;;;0.10;0.10;;;12.50;80.00;;;;;;4898276;29;20583;-83
2023/12/22 10:12:21;;;;;;;0.10;0.10;;;12.50;80.30;;;;;;4895692;29;20124;-83
2023/12/22 10:14:48;;;;;;;0.10;0.10;;;12.60;80.30;;;;;;4880504;29;20065;-84
2023/12/22 10:17:15;;;;;;;0.10;0.10;;;12.70;79.80;;;;;;4890509;29;20063;-83
2023/12/22 10:19:40;;;;;;;0.10;0.10;;;12.60;79.30;;;;;;4900004;29;20566;-84
2023/12/22 10:22:06;;;;;;;0.10;0.10;;;12.70;79.30;;;;;;4894394;29;20040;-83
2023/12/22 10:24:42;;;;;;;0.10;0.10;;;12.80;79.40;;;;;;4898474;29;20043;-83
2023/12/22 10:27:08;;;;;;;0.10;0.10;;;12.80;79.10;;;;;;4898790;29;20044;-83
2023/12/22 10:29:34;;;;;;;0.15;0.15;;;12.80;78.60;;;;;;4899332;29;20407;-84
2023/12/22 10:32:04;;;;;;;0.10;0.10;;;12.80;78.50;;;;;;4913973;29;20109;-83
2023/12/22 10:34:30;;;;;;;0.10;0.10;;;12.70;78.30;;;;;;4894724;29;20085;-84
2023/12/22 10:36:57;;;;;;;0.10;0.10;;;12.80;78.30;;;;;;4892345;29;20036;-83
2023/12/22 10:39:23;;;;;;;0.10;0.10;;;12.80;78.50;;;;;;4898898;29;20106;-84
2023/12/22 10:41:51;;;;;;;0.10;0.10;;;12.70;78.10;;;;;;4912776;29;20037;-83
2023/12/22 10:44:17;;;;;;;0.10;0.10;;;12.80;78.20;;;;;;4896890;29;20047;-83
2023/12/22 10:46:43;;;;;;;0.10;0.10;;;12.70;77.70;;;;;;4899252;29;20032;-83
2023/12/22 10:49:09;;;;;;;0.10;0.10;;;12.80;78.10;;;;;;4895676;29;20076;-83
2023/12/22 10:51:34;;;;;;;0.10;0.10;;;12.80;77.80;;;;;;4914285;29;20029;-84
2023/12/22 10:54:05;;;;;;;0.17;0.17;;;12.80;76.80;;;;;;4898167;29;20025;-83
2023/12/22 10:56:31;;;;;;;0.10;0.10;;;12.60;77.10;;;;;;4897500;29;20032;-83
2023/12/22 10:58:58;;;;;;;0.10;0.10;;;12.70;77.70;;;;;;4897852;29;20030;-83
2023/12/22 11:01:33;;;;;;;0.10;0.10;;;12.60;77.40;;;;;;4896709;29;20037;-84
2023/12/22 11:04:02;;;;;;;0.10;0.10;;;12.60;77.60;;;;;;4895583;29;20755;-83
2023/12/22 11:06:30;;;;;;;0.10;0.10;;;12.60;77.10;;;;;;4895794;29;20032;-83
2023/12/22 11:08:57;;;;;;;0.10;0.10;;;12.70;77.60;;;;;;4896350;29;20032;-83
2023/12/22 11:11:33;;;;;;;0.10;0.10;;;12.80;77.20;;;;;;4879594;29;20101;-84
2023/12/22 11:14:03;;;;;;;0.10;0.10;;;12.80;77.20;;;;;;4897925;29;20037;-83
2023/12/22 11:16:30;;;;;;;0.10;0.10;;;12.80;77.50;;;;;;4897388;29;20084;-85
2023/12/22 11:18:57;;;;;;;0.10;0.10;;;12.80;76.90;;;;;;4895269;29;20093;-88
2023/12/22 11:21:24;;;;;;;0.20;0.20;;;12.80;76.70;;;;;;4897814;29;20024;-82
2023/12/22 11:23:53;;;;;;;0.17;0.17;;;12.90;77.10;;;;;;4898379;29;20032;-85
2023/12/22 11:26:20;;;;;;;0.10;0.10;;;12.90;76.90;;;;;;4898701;29;20048;-86
2023/12/22 11:28:47;;;;;;;0.10;0.10;;;12.90;76.80;;;;;;4902525;29;20045;-84
2023/12/22 11:31:14;;;;;;;0.10;0.10;;;12.90;76.50;;;;;;4899172;29;20076;-79
2023/12/22 11:33:50;;;;;;;0.10;0.10;;;12.90;76.70;;;;;;4897546;29;20060;-92
2023/12/22 11:36:18;;;;;;;0.10;0.10;;;12.80;76.60;;;;;;4866213;29;20036;-92
2023/12/22 11:38:45;;;;;;;0.10;0.10;;;12.80;76.80;;;;;;4865167;29;20445;-85
2023/12/22 11:41:26;;;;;;;0.10;0.10;;;12.70;77.10;;;;;;4894159;29;20039;-89
2023/12/22 11:43:54;;;;;;;0.10;0.10;;;12.60;77.50;;;;;;4882822;29;20055;-91
2023/12/22 11:46:20;;;;;;;0.10;0.10;;;12.60;77.70;;;;;;4899842;29;20025;-92
2023/12/22 11:48:50;;;;;;;0.10;0.10;;;12.70;77.50;;;;;;4884814;29;20044;-90
2023/12/22 11:51:17;;;;;;;0.10;0.10;;;12.70;77.50;;;;;;4882676;29;20056;-90
2023/12/22 11:53:43;;;;;;;0.10;0.10;;;12.80;77.40;;;;;;4883029;29;20412;-89
2023/12/22 11:56:10;;;;;;;0.10;0.10;;;12.80;77.80;;;;;;4899463;29;20037;-83
2023/12/22 11:58:57;;;;;;;0.10;0.10;;;12.80;77.30;;;;;;4898253;29;20040;-91
2023/12/22 12:01:24;;;;;;;0.10;0.10;;;12.90;76.80;;;;;;4883257;29;20689;-93
2023/12/22 12:03:55;;;;;;;0.10;0.10;;;13.10;76.40;;;;;;4882248;29;20025;-88
2023/12/22 12:06:27;;;;;;;0.10;0.10;;;13.00;76.00;;;;;;4868503;29;20640;-82
2023/12/22 12:08:56;;;;;;;0.10;0.10;;;13.10;75.60;;;;;;4881153;29;20068;-84
2023/12/22 12:11:23;;;;;;;0.10;0.10;;;13.00;75.60;;;;;;4881541;29;20496;-86
2023/12/22 12:13:50;;;;;;;0.10;0.10;;;13.10;75.40;;;;;;4895620;29;20395;-86
2023/12/22 12:16:23;;;;;;;0.10;0.10;;;13.10;74.70;;;;;;4877489;29;20314;-87
2023/12/22 12:18:50;;;;;;;0.10;0.10;;;13.10;75.00;;;;;;4893775;29;20029;-86
2023/12/22 12:21:16;;;;;;;0.10;0.10;;;13.10;75.20;;;;;;4896859;29;20189;-85
2023/12/22 12:23:42;;;;;;;0.10;0.10;;;13.00;75.40;;;;;;4893644;29;20041;-86
2023/12/22 12:26:08;;;;;;;0.10;0.10;;;12.80;76.40;;;;;;4897079;29;20032;-84
2023/12/22 12:28:36;;;;;;;0.10;0.10;;;12.80;76.60;;;;;;4880464;29;20063;-83
2023/12/22 12:31:08;;;;;;;0.10;0.10;;;12.80;77.40;;;;;;4894822;29;20040;-84
2023/12/22 12:33:35;;;;;;;0.10;0.10;;;12.80;77.20;;;;;;4899624;29;20029;-85
2023/12/22 12:36:05;;;;;;;0.00;0.00;;;12.80;77.00;;;;;;4898686;29;20032;-84
2023/12/22 12:38:37;;;;;;;0.10;0.10;;;12.80;77.10;;;;;;4900801;29;20057;-81
2023/12/22 12:41:07;;;;;;;0.10;0.10;;;12.80;77.00;;;;;;4901981;29;20643;-81
2023/12/22 12:43:32;;;;;;;0.10;0.10;;;12.80;77.40;;;;;;4900141;29;20123;-81
2023/12/22 12:46:05;;;;;;;0.10;0.10;;;12.80;78.00;;;;;;4901043;29;20029;-81
2023/12/22 12:48:31;;;;;;;0.10;0.10;;;13.00;77.70;;;;;;4900416;29;20051;-82
2023/12/22 12:51:03;;;;;;;0.10;0.10;;;13.10;77.90;;;;;;4895998;29;20029;-81
2023/12/22 12:53:33;;;;;;;0.10;0.10;;;13.10;77.50;;;;;;4872284;29;20033;-81
2023/12/22 12:56:00;;;;;;;0.10;0.10;;;13.10;77.40;;;;;;4886896;29;20037;-82
2023/12/22 12:58:30;;;;;;;0.10;0.10;;;13.00;77.50;;;;;;4900447;29;20029;-81
2023/12/22 13:01:04;;;;;;;0.10;0.10;;;13.00;78.00;;;;;;4883119;29;20043;-83
2023/12/22 13:03:30;;;;;;;0.10;0.10;;;12.90;78.20;;;;;;4883650;29;20088;-82
2023/12/22 13:06:08;;;;;;;0.10;0.10;;;12.80;78.30;;;;;;4884247;29;20030;-81
2023/12/22 13:08:35;;;;;;;0.10;0.10;;;12.80;79.00;;;;;;4900276;29;20036;-82
2023/12/22 13:11:02;;;;;;;0.10;0.10;;;12.70;79.40;;;;;;4900944;29;20024;-82
2023/12/22 13:13:27;;;;;;;0.10;0.10;;;12.70;79.50;;;;;;4901625;29;20028;-82
2023/12/22 13:15:53;;;;;;;0.10;0.10;;;12.80;79.30;;;;;;4901625;29;20061;-82
2023/12/22 13:18:19;;;;;;;0.10;0.10;;;12.70;79.30;;;;;;4879605;29;20033;-82
2023/12/22 13:20:45;;;;;;;0.10;0.10;;;12.70;79.30;;;;;;4870563;29;20036;-82
2023/12/22 13:23:10;;;;;;;0.10;0.10;;;12.80;79.20;;;;;;4884424;29;20123;-86
2023/12/22 13:25:40;;;;;;;0.10;0.10;;;12.80;79.10;;;;;;4899842;29;20044;-86
2023/12/22 13:28:05;;;;;;;0.10;0.10;;;12.70;79.00;;;;;;4901045;29;20039;-78
2023/12/22 13:30:40;;;;;;;0.10;0.10;;;12.70;79.20;;;;;;4900499;29;20407;-78
2023/12/22 13:33:06;;;;;;;0.10;0.10;;;12.70;79.00;;;;;;4901052;29;20041;-78
2023/12/22 13:35:35;;;;;;;0.10;0.10;;;12.70;78.70;;;;;;4900085;29;20020;-79
2023/12/22 13:38:05;;;;;;;0.10;0.10;;;12.60;78.70;;;;;;4899773;29;20088;-78
2023/12/22 13:40:30;;;;;;;0.10;0.10;;;12.50;79.00;;;;;;4890725;29;20028;-78
2023/12/22 13:42:57;;;;;;;0.10;0.10;;;12.50;79.60;;;;;;4885011;29;20049;-79
2023/12/22 13:45:26;;;;;;;0.10;0.10;;;12.50;79.70;;;;;;4900208;29;20065;-79
2023/12/22 13:47:52;;;;;;;0.10;0.10;;;12.60;79.80;;;;;;4900248;29;20038;-78
2023/12/22 13:50:18;;;;;;;0.10;0.10;;;12.60;79.90;;;;;;4899630;29;20120;-78
2023/12/22 13:52:44;;;;;;;0.10;0.10;;;12.50;79.90;;;;;;4901376;29;20028;-78
2023/12/22 13:55:14;;;;;;;0.10;0.10;;;12.50;80.10;;;;;;4884578;29;20024;-79
2023/12/22 13:57:40;;;;;;;0.10;0.10;;;12.40;80.50;;;;;;4901196;29;20060;-78
2023/12/22 14:00:29;;;;;;;0.20;0.20;;;12.40;80.40;;;;;;4886869;29;20025;-78
2023/12/22 14:02:56;;;;;;;0.10;0.10;;;12.30;80.40;;;;;;4884942;29;20033;-78
2023/12/22 14:05:21;;;;;;;0.10;0.10;;;12.40;80.40;;;;;;4901556;29;20040;-79
2023/12/22 14:07:48;;;;;;;0.10;0.10;;;12.50;80.20;;;;;;4901349;29;20411;-78
2023/12/22 14:10:14;;;;;;;0.10;0.10;;;12.50;79.50;;;;;;4900401;29;20111;-78
2023/12/22 14:12:42;;;;;;;0.10;0.10;;;12.60;79.10;;;;;;4884279;29;20033;-78
2023/12/22 14:15:08;;;;;;;0.10;0.10;;;12.60;79.40;;;;;;4901348;29;20473;-79
2023/12/22 14:17:34;;;;;;;0.10;0.10;;;12.60;78.70;;;;;;4901419;29;20037;-78
2023/12/22 14:20:00;;;;;;;0.10;0.10;;;12.70;78.90;;;;;;4880620;29;20029;-78
2023/12/22 14:22:28;;;;;;;0.10;0.10;;;12.60;78.60;;;;;;4899022;29;20036;-78
2023/12/22 14:24:54;;;;;;;0.10;0.10;;;12.60;78.10;;;;;;4900617;29;20135;-78
2023/12/22 14:27:23;;;;;;;0.10;0.10;;;12.60;77.70;;;;;;4900456;29;20135;-78
2023/12/22 14:29:48;;;;;;;0.10;0.10;;;12.50;77.50;;;;;;4898621;29;20036;-80
2023/12/22 14:32:18;;;;;;;0.10;0.10;;;12.50;77.20;;;;;;4891477;29;20516;-78
2023/12/22 14:34:45;;;;;;;0.10;0.10;;;12.50;77.30;;;;;;4899507;29;20411;-78
2023/12/22 14:37:11;;;;;;;0.10;0.10;;;12.50;77.60;;;;;;4901257;29;20403;-78
2023/12/22 14:39:36;;;;;;;0.10;0.10;;;12.40;77.30;;;;;;4900445;29;20028;-77
2023/12/22 14:42:03;;;;;;;0.10;0.10;;;12.40;77.70;;;;;;4900639;29;20690;-77
2023/12/22 14:44:29;;;;;;;0.10;0.10;;;12.40;77.90;;;;;;4900972;29;20039;-78
2023/12/22 14:46:55;;;;;;;0.10;0.10;;;12.50;77.90;;;;;;4901198;29;20104;-78
2023/12/22 14:49:21;;;;;;;0.10;0.10;;;12.50;77.60;;;;;;4899640;29;20040;-78
2023/12/22 14:51:51;;;;;;;0.10;0.10;;;12.50;78.00;;;;;;4892173;29;20025;-78
2023/12/22 14:54:17;;;;;;;0.10;0.10;;;12.40;77.70;;;;;;4899559;29;20088;-77
2023/12/22 14:56:43;;;;;;;0.00;0.00;;;12.30;77.80;;;;;;4901529;29;20091;-78
2023/12/22 14:59:10;;;;;;;0.10;0.10;;;12.30;77.90;;;;;;4914804;29;20025;-78
2023/12/22 15:01:36;;;;;;;0.10;0.10;;;12.40;78.00;;;;;;4898748;29;20036;-78
2023/12/22 15:04:02;;;;;;;0.10;0.10;;;12.40;78.00;;;;;;4899555;29;20132;-78
2023/12/22 15:06:29;;;;;;;0.10;0.10;;;12.50;78.00;;;;;;4899123;29;20037;-78
2023/12/22 15:08:55;;;;;;;0.00;0.00;;;12.30;77.90;;;;;;4900807;29;20128;-77
2023/12/22 15:11:20;;;;;;;0.10;0.10;;;12.30;78.30;;;;;;4900569;29;20068;-78
2023/12/22 15:13:46;;;;;;;0.10;0.10;;;12.20;78.50;;;;;;4896279;29;20032;-77
2023/12/22 15:16:11;;;;;;;0.10;0.10;;;12.20;78.60;;;;;;4900082;29;20036;-77
2023/12/22 15:18:37;;;;;;;0.10;0.10;;;12.20;78.60;;;;;;4899967;29;20443;-77
2023/12/22 15:21:03;;;;;;;0.10;0.10;;;12.30;78.60;;;;;;4900439;29;20404;-78
2023/12/22 15:23:32;;;;;;;0.10;0.10;;;12.20;78.80;;;;;;4899863;29;20059;-77
2023/12/22 15:25:57;;;;;;;0.10;0.10;;;12.10;79.20;;;;;;4900499;29;20043;-78
2023/12/22 15:28:23;;;;;;;0.10;0.10;;;11.90;79.20;;;;;;4898295;29;20036;-77
2023/12/22 15:30:48;;;;;;;0.00;0.00;;;11.90;79.60;;;;;;4899072;29;20519;-77
2023/12/22 15:33:14;;;;;;;0.10;0.10;;;11.80;79.80;;;;;;4900469;29;20033;-77
2023/12/22 15:35:40;;;;;;;0.05;0.05;;;11.80;80.00;;;;;;4897457;29;20029;-78
2023/12/22 15:38:05;;;;;;;0.10;0.10;;;11.70;80.30;;;;;;4900016;29;20033;-78
2023/12/22 15:40:31;;;;;;;0.10;0.10;;;11.80;80.50;;;;;;4899894;29;20399;-78
2023/12/22 15:42:56;;;;;;;0.10;0.10;;;11.80;80.60;;;;;;4893196;29;20578;-77
2023/12/22 15:45:22;;;;;;;0.10;0.10;;;11.80;80.40;;;;;;4900167;29;20029;-77
2023/12/22 15:47:48;;;;;;;0.10;0.10;;;11.80;80.10;;;;;;4899838;29;20025;-78
2023/12/22 15:50:13;;;;;;;0.10;0.10;;;11.80;79.90;;;;;;4898622;29;20065;-77
2023/12/22 15:52:41;;;;;;;0.10;0.10;;;11.80;80.00;;;;;;4899349;29;20447;-77
2023/12/22 15:55:08;;;;;;;0.10;0.10;;;11.80;79.90;;;;;;4900359;29;20024;-78
2023/12/22 15:57:34;;;;;;;0.10;0.10;;;11.80;79.60;;;;;;4899589;29;20480;-78
2023/12/22 16:00:00;;;;;;;0.10;0.10;;;11.80;79.70;;;;;;4900107;29;20032;-78
2023/12/22 16:02:25;;;;;;;0.10;0.10;;;11.70;79.60;;;;;;4898030;29;20583;-78
2023/12/22 16:04:51;;;;;;;0.10;0.10;;;11.80;79.40;;;;;;4898114;29;20037;-78
2023/12/22 16:07:16;;;;;;;0.10;0.10;;;11.80;79.30;;;;;;4899159;29;20076;-80
2023/12/22 16:09:42;;;;;;;0.10;0.10;;;11.80;79.30;;;;;;4899718;29;20476;-79
2023/12/22 16:12:08;;;;;;;0.10;0.10;;;11.80;79.00;;;;;;4900288;29;20128;-78
2023/12/22 16:14:34;;;;;;;0.10;0.10;;;11.80;79.00;;;;;;4900594;29;20460;-79
2023/12/22 16:17:00;;;;;;;0.10;0.10;;;11.80;79.00;;;;;;4897646;29;20029;-79
2023/12/22 16:19:27;;;;;;;0.10;0.10;;;11.80;78.80;;;;;;4899101;29;20032;-78
2023/12/22 16:21:52;;;;;;;0.10;0.10;;;11.80;78.70;;;;;;4897459;29;20407;-79
2023/12/22 16:24:21;;;;;;;0.10;0.10;;;11.80;78.80;;;;;;4899333;29;20028;-80
2023/12/22 16:26:50;;;;;;;0.08;0.08;;;11.80;78.30;;;;;;4899847;29;20033;-79
2023/12/22 16:29:16;;;;;;;0.10;0.10;;;11.80;78.50;;;;;;4899190;29;20103;-79
2023/12/22 16:31:42;;;;;;;0.10;0.10;;;11.70;78.40;;;;;;4899762;29;20055;-81
2023/12/22 16:34:08;;;;;;;0.10;0.10;;;11.80;78.30;;;;;;4883299;29;20503;-79
2023/12/22 16:36:34;;;;;;;0.10;0.10;;;11.80;78.10;;;;;;4899653;29;20025;-79
2023/12/22 16:38:59;;;;;;;0.10;0.10;;;11.80;78.20;;;;;;4899205;29;20056;-79
2023/12/22 16:41:25;;;;;;;0.10;0.10;;;11.80;78.20;;;;;;4893093;29;20032;-77
2023/12/22 16:43:54;;;;;;;0.10;0.10;;;11.80;78.40;;;;;;4899622;29;20123;-77
2023/12/22 16:46:20;;;;;;;0.10;0.10;;;11.80;78.50;;;;;;4882521;29;20033;-77
2023/12/22 16:48:46;;;;;;;0.10;0.10;;;11.80;78.60;;;;;;4899101;29;20052;-77
2023/12/22 16:51:12;;;;;;;0.10;0.10;;;11.80;79.00;;;;;;4898211;29;20527;-78
2023/12/22 16:53:38;;;;;;;0.10;0.10;;;11.70;79.20;;;;;;4900043;29;20065;-76
2023/12/22 16:56:05;;;;;;;0.10;0.10;;;11.60;79.30;;;;;;4899924;29;20024;-77
2023/12/22 16:58:30;;;;;;;0.10;0.10;;;11.60;79.50;;;;;;4898307;29;20032;-77
2023/12/22 17:00:56;;;;;;;0.10;0.10;;;11.50;79.70;;;;;;4899757;29;20039;-77
2023/12/22 17:03:22;;;;;;;0.00;0.00;;;11.50;79.60;;;;;;4899010;29;20032;-77
2023/12/22 17:05:47;;;;;;;0.10;0.10;;;11.60;79.80;;;;;;4899904;29;20044;-77
2023/12/22 17:08:13;;;;;;;0.10;0.10;;;11.60;79.80;;;;;;4898057;29;20033;-77
2023/12/22 17:10:39;;;;;;;0.10;0.10;;;11.60;79.80;;;;;;4899668;29;20076;-76
2023/12/22 17:13:07;;;;;;;0.10;0.10;;;11.70;79.70;;;;;;4899044;29;20106;-77
2023/12/22 17:15:33;;;;;;;0.10;0.10;;;11.70;79.60;;;;;;4899815;29;20028;-77
2023/12/22 17:17:59;;;;;;;0.10;0.10;;;11.60;79.70;;;;;;4878525;29;20056;-77
2023/12/22 17:20:25;;;;;;;0.10;0.10;;;11.60;79.70;;;;;;4884651;29;20029;-77
2023/12/22 17:22:50;;;;;;;0.10;0.10;;;11.60;79.90;;;;;;4901699;29;20117;-77
2023/12/22 17:25:19;;;;;;;0.10;0.10;;;11.60;80.00;;;;;;4903181;29;20080;-77
2023/12/22 17:27:45;;;;;;;0.10;0.10;;;11.70;80.30;;;;;;4902066;29;20540;-77
2023/12/22 17:30:11;;;;;;;0.10;0.10;;;11.60;80.70;;;;;;4902974;29;20112;-77
2023/12/22 17:32:37;;;;;;;0.10;0.10;;;11.50;81.20;;;;;;4902080;29;20037;-77
2023/12/22 17:35:03;;;;;;;0.10;0.10;;;11.50;81.90;;;;;;4885949;29;20484;-77
2023/12/22 17:37:29;;;;;;;0.10;0.10;;;11.40;82.50;;;;;;4902681;29;20024;-77
2023/12/22 17:39:55;;;;;;;0.10;0.10;;;11.40;82.90;;;;;;4886083;29;20036;-77
2023/12/22 17:42:21;;;;;;;0.10;0.10;;;11.40;83.20;;;;;;4902599;29;20495;-77
2023/12/22 17:44:47;;;;;;;0.10;0.10;;;11.40;83.40;;;;;;4902588;29;20055;-77
2023/12/22 17:47:13;;;;;;;0.10;0.10;;;11.40;83.60;;;;;;4901923;29;20060;-77
2023/12/22 17:49:38;;;;;;;0.10;0.10;;;11.40;83.70;;;;;;4901956;29;20064;-77
2023/12/22 17:52:05;;;;;;;0.10;0.10;;;11.40;83.80;;;;;;4900731;29;20040;-77
2023/12/22 17:54:30;;;;;;;0.10;0.10;;;11.30;84.00;;;;;;4880686;29;20045;-77
2023/12/22 17:57:00;;;;;;;0.10;0.10;;;11.30;84.10;;;;;;4882105;29;21235;-77
2023/12/22 17:59:26;;;;;;;0.10;0.10;;;11.30;84.20;;;;;;4883146;29;20025;-77
2023/12/22 18:01:53;;;;;;;0.10;0.10;;;11.30;84.10;;;;;;4891739;29;20029;-77
2023/12/22 18:04:19;;;;;;;0.10;0.10;;;11.30;84.10;;;;;;4902162;29;20044;-77
2023/12/22 18:06:45;;;;;;;0.00;0.00;;;11.20;84.20;;;;;;4890544;29;20033;-78
2023/12/22 18:09:11;;;;;;;0.10;0.10;;;11.30;84.40;;;;;;4900886;29;20776;-77
2023/12/22 18:11:41;;;;;;;0.10;0.10;;;11.30;84.40;;;;;;4902140;29;20039;-76
2023/12/22 18:14:06;;;;;;;0.10;0.10;;;11.20;84.40;;;;;;4899506;29;20029;-77
2023/12/22 18:16:41;;;;;;;0.10;0.10;;;11.20;84.40;;;;;;4902445;29;20080;-81